NOZ621 ENBR-ENGM
Flight info
| Callsign | NOZ621 |
|---|---|
| Flight time | 0h 41m |
| Altitude | 31000 |
| Route | GOKAB DCT ULVAN DCT ADOPI |
| Aircraft | B738/M-SDE2E3FGHIRWXY/LB1 |
Departure
| Time | 2026-05-06 17:57 |
|---|---|
| Airport | Bergen Airport, Flesland (ENBR) |
Arrival
| Time | 2026-05-06 18:38 |
|---|---|
| Airport | Oslo-Gardermoen International Airport (ENGM) |
| Time | Latitude | Longitude | Altitude | Speed | Heading |
|---|---|---|---|---|---|
| 2026-05-06 17:12 | 60.28701 | 5.22912 | 175 ft | 0 kts | 81° |
| 2026-05-06 17:16 | 60.28662 | 5.22935 | 175 ft | 0 kts | 81° |
| 2026-05-06 17:16 | 60.28622 | 5.22944 | 175 ft | 0 kts | 81° |
| 2026-05-06 17:46 | 60.28619 | 5.22910 | 175 ft | 4 kts | 81° |
| 2026-05-06 17:46 | 60.28616 | 5.22869 | 173 ft | 4 kts | 81° |
| 2026-05-06 17:46 | 60.28613 | 5.22824 | 171 ft | 0 kts | 82° |
| 2026-05-06 17:51 | 60.28619 | 5.22828 | 171 ft | 1 kts | 11° |
| 2026-05-06 17:51 | 60.28642 | 5.22787 | 171 ft | 10 kts | 315° |
| 2026-05-06 17:51 | 60.28683 | 5.22673 | 171 ft | 10 kts | 265° |
| 2026-05-06 17:51 | 60.28670 | 5.22528 | 171 ft | 11 kts | 274° |
| 2026-05-06 17:52 | 60.28703 | 5.22367 | 168 ft | 12 kts | 317° |
| 2026-05-06 17:52 | 60.28790 | 5.22325 | 169 ft | 13 kts | 348° |
| 2026-05-06 17:52 | 60.28888 | 5.22289 | 170 ft | 15 kts | 349° |
| 2026-05-06 17:52 | 60.28997 | 5.22251 | 172 ft | 16 kts | 352° |
| 2026-05-06 17:53 | 60.29110 | 5.22216 | 173 ft | 18 kts | 351° |
| 2026-05-06 17:53 | 60.29253 | 5.22168 | 166 ft | 23 kts | 351° |
| 2026-05-06 17:53 | 60.29430 | 5.22111 | 158 ft | 27 kts | 351° |
| 2026-05-06 17:53 | 60.29622 | 5.22041 | 151 ft | 27 kts | 351° |
| 2026-05-06 17:54 | 60.29804 | 5.21979 | 149 ft | 26 kts | 350° |
| 2026-05-06 17:54 | 60.29974 | 5.21922 | 156 ft | 24 kts | 349° |
| 2026-05-06 17:54 | 60.30133 | 5.21867 | 163 ft | 23 kts | 350° |
| 2026-05-06 17:54 | 60.30286 | 5.21819 | 170 ft | 22 kts | 351° |
| 2026-05-06 17:55 | 60.30429 | 5.21747 | 176 ft | 20 kts | 313° |
| 2026-05-06 17:55 | 60.30399 | 5.21498 | 172 ft | 20 kts | 216° |
| 2026-05-06 17:55 | 60.30326 | 5.21486 | 170 ft | 0 kts | 170° |
| 2026-05-06 17:56 | 60.30321 | 5.21487 | 170 ft | 3 kts | 170° |
| 2026-05-06 17:56 | 60.30101 | 5.21560 | 161 ft | 83 kts | 171° |
| 2026-05-06 17:56 | 60.29196 | 5.21860 | 180 ft | 175 kts | 173° |
| 2026-05-06 17:57 | 60.27878 | 5.22299 | 1112 ft | 198 kts | 173° |
| 2026-05-06 17:57 | 60.26431 | 5.22786 | 2130 ft | 218 kts | 173° |
| 2026-05-06 17:57 | 60.24888 | 5.23276 | 2982 ft | 235 kts | 173° |
| 2026-05-06 17:57 | 60.23176 | 5.23823 | 3449 ft | 258 kts | 172° |
| 2026-05-06 17:58 | 60.21383 | 5.24413 | 4291 ft | 264 kts | 173° |
| 2026-05-06 17:58 | 60.19570 | 5.25021 | 5282 ft | 264 kts | 173° |
| 2026-05-06 17:58 | 60.17736 | 5.25641 | 5820 ft | 268 kts | 172° |
| 2026-05-06 17:58 | 60.15885 | 5.26269 | 5992 ft | 271 kts | 172° |
| 2026-05-06 17:59 | 60.14020 | 5.26901 | 6004 ft | 272 kts | 172° |
| 2026-05-06 17:59 | 60.12183 | 5.27805 | 5989 ft | 274 kts | 156° |
| 2026-05-06 17:59 | 60.10714 | 5.30196 | 6007 ft | 276 kts | 126° |
| 2026-05-06 17:59 | 60.09995 | 5.33718 | 6010 ft | 275 kts | 96° |
| 2026-05-06 18:00 | 60.10063 | 5.37530 | 6012 ft | 274 kts | 80° |
| 2026-05-06 18:00 | 60.10519 | 5.41240 | 6062 ft | 278 kts | 61° |
| 2026-05-06 18:00 | 60.11752 | 5.44152 | 6845 ft | 273 kts | 33° |
| 2026-05-06 18:00 | 60.13451 | 5.45710 | 7834 ft | 269 kts | 9° |
| 2026-05-06 18:01 | 60.15311 | 5.45824 | 8716 ft | 268 kts | 353° |
| 2026-05-06 18:01 | 60.17181 | 5.45455 | 9590 ft | 272 kts | 351° |
| 2026-05-06 18:01 | 60.19068 | 5.45040 | 10427 ft | 275 kts | 352° |
| 2026-05-06 18:01 | 60.20976 | 5.45580 | 11207 ft | 287 kts | 21° |
| 2026-05-06 18:02 | 60.22587 | 5.48034 | 12087 ft | 297 kts | 46° |
| 2026-05-06 18:02 | 60.23693 | 5.51619 | 12944 ft | 307 kts | 61° |
| 2026-05-06 18:02 | 60.24581 | 5.55573 | 13775 ft | 313 kts | 64° |
| 2026-05-06 18:02 | 60.25437 | 5.59656 | 14483 ft | 321 kts | 64° |
| 2026-05-06 18:03 | 60.26312 | 5.63861 | 15137 ft | 331 kts | 64° |
| 2026-05-06 18:03 | 60.27220 | 5.68194 | 15838 ft | 340 kts | 63° |
| 2026-05-06 18:03 | 60.28160 | 5.72637 | 16531 ft | 349 kts | 63° |
| 2026-05-06 18:03 | 60.29129 | 5.77182 | 17042 ft | 356 kts | 63° |
| 2026-05-06 18:04 | 60.30114 | 5.81786 | 17034 ft | 358 kts | 62° |
| 2026-05-06 18:04 | 60.31097 | 5.86383 | 17046 ft | 356 kts | 62° |
| 2026-05-06 18:04 | 60.32080 | 5.90978 | 17047 ft | 356 kts | 62° |
| 2026-05-06 18:04 | 60.33060 | 5.95561 | 17024 ft | 355 kts | 63° |
| 2026-05-06 18:05 | 60.34037 | 6.00137 | 17027 ft | 355 kts | 62° |
| 2026-05-06 18:05 | 60.35011 | 6.04702 | 17033 ft | 355 kts | 63° |
| 2026-05-06 18:05 | 60.35987 | 6.09288 | 17038 ft | 356 kts | 63° |
| 2026-05-06 18:05 | 60.36967 | 6.13902 | 17048 ft | 359 kts | 63° |
| 2026-05-06 18:06 | 60.37893 | 6.18668 | 17472 ft | 371 kts | 71° |
| 2026-05-06 18:06 | 60.38314 | 6.23875 | 18165 ft | 381 kts | 83° |
| 2026-05-06 18:06 | 60.38527 | 6.29282 | 18764 ft | 389 kts | 85° |
| 2026-05-06 18:06 | 60.38700 | 6.34747 | 19528 ft | 391 kts | 85° |
| 2026-05-06 18:07 | 60.38873 | 6.40269 | 20242 ft | 395 kts | 85° |
| 2026-05-06 18:07 | 60.39058 | 6.45854 | 20892 ft | 401 kts | 85° |
| 2026-05-06 18:07 | 60.39258 | 6.51524 | 21550 ft | 407 kts | 85° |
| 2026-05-06 18:07 | 60.39468 | 6.57260 | 22268 ft | 412 kts | 85° |
| 2026-05-06 18:08 | 60.39683 | 6.63067 | 22928 ft | 416 kts | 85° |
| 2026-05-06 18:08 | 60.39900 | 6.68912 | 23522 ft | 419 kts | 86° |
| 2026-05-06 18:08 | 60.40118 | 6.74834 | 23972 ft | 424 kts | 86° |
| 2026-05-06 18:08 | 60.40336 | 6.80798 | 24524 ft | 426 kts | 86° |
| 2026-05-06 18:09 | 60.40547 | 6.86713 | 24968 ft | 429 kts | 87° |
| 2026-05-06 18:09 | 60.40761 | 6.92738 | 25433 ft | 432 kts | 87° |
| 2026-05-06 18:09 | 60.40974 | 6.98824 | 25898 ft | 435 kts | 87° |
| 2026-05-06 18:09 | 60.41185 | 7.04933 | 26390 ft | 437 kts | 87° |
| 2026-05-06 18:10 | 60.41380 | 7.11083 | 26902 ft | 436 kts | 90° |
| 2026-05-06 18:10 | 60.41334 | 7.17173 | 27578 ft | 431 kts | 96° |
| 2026-05-06 18:10 | 60.41154 | 7.23204 | 28110 ft | 430 kts | 97° |
| 2026-05-06 18:10 | 60.40929 | 7.29235 | 28576 ft | 431 kts | 98° |
| 2026-05-06 18:11 | 60.40693 | 7.35292 | 29105 ft | 431 kts | 98° |
| 2026-05-06 18:11 | 60.40537 | 7.39364 | 29512 ft | 430 kts | 98° |
| 2026-05-06 18:11 | 60.40242 | 7.47330 | 30249 ft | 428 kts | 98° |
| 2026-05-06 18:11 | 60.40028 | 7.53326 | 30709 ft | 426 kts | 98° |
| 2026-05-06 18:12 | 60.39816 | 7.59377 | 31028 ft | 427 kts | 98° |
| 2026-05-06 18:12 | 60.39607 | 7.65303 | 30996 ft | 428 kts | 98° |
| 2026-05-06 18:12 | 60.39184 | 7.77230 | 31002 ft | 423 kts | 98° |
| 2026-05-06 18:13 | 60.38970 | 7.83202 | 30863 ft | 418 kts | 98° |
| 2026-05-06 18:13 | 60.38756 | 7.89055 | 30476 ft | 419 kts | 99° |
| 2026-05-06 18:13 | 60.38534 | 7.94976 | 29877 ft | 425 kts | 99° |
| 2026-05-06 18:13 | 60.38306 | 8.00955 | 29233 ft | 429 kts | 99° |
| 2026-05-06 18:14 | 60.38153 | 8.04953 | 28828 ft | 431 kts | 99° |
| 2026-05-06 18:14 | 60.37840 | 8.13049 | 27756 ft | 441 kts | 99° |
| 2026-05-06 18:14 | 60.37597 | 8.19257 | 27162 ft | 444 kts | 98° |
| 2026-05-06 18:14 | 60.37354 | 8.25459 | 26585 ft | 444 kts | 98° |
| 2026-05-06 18:15 | 60.37102 | 8.31756 | 25702 ft | 454 kts | 98° |
| 2026-05-06 18:15 | 60.36928 | 8.36066 | 25239 ft | 457 kts | 98° |
| 2026-05-06 18:15 | 60.36672 | 8.42375 | 24776 ft | 454 kts | 98° |
| 2026-05-06 18:15 | 60.36411 | 8.48774 | 24391 ft | 449 kts | 98° |
| 2026-05-06 18:16 | 60.36156 | 8.54953 | 23993 ft | 445 kts | 98° |
| 2026-05-06 18:16 | 60.35831 | 8.62678 | 23428 ft | 442 kts | 98° |
| 2026-05-06 18:16 | 60.35568 | 8.68834 | 22929 ft | 439 kts | 98° |
| 2026-05-06 18:16 | 60.35304 | 8.74961 | 22460 ft | 435 kts | 98° |
| 2026-05-06 18:17 | 60.35039 | 8.81011 | 22060 ft | 431 kts | 98° |
| 2026-05-06 18:17 | 60.34775 | 8.87011 | 21957 ft | 428 kts | 98° |
| 2026-05-06 18:17 | 60.34511 | 8.92923 | 21981 ft | 431 kts | 98° |
| 2026-05-06 18:17 | 60.34235 | 8.99048 | 21972 ft | 431 kts | 98° |
| 2026-05-06 18:18 | 60.33960 | 9.05068 | 21959 ft | 431 kts | 98° |
| 2026-05-06 18:18 | 60.33683 | 9.11087 | 21951 ft | 431 kts | 98° |
| 2026-05-06 18:18 | 60.33408 | 9.17039 | 21859 ft | 421 kts | 98° |
| 2026-05-06 18:18 | 60.33138 | 9.22865 | 21787 ft | 410 kts | 98° |
| 2026-05-06 18:19 | 60.32873 | 9.28503 | 21701 ft | 399 kts | 98° |
| 2026-05-06 18:19 | 60.32609 | 9.34037 | 21422 ft | 394 kts | 99° |
| 2026-05-06 18:19 | 60.32544 | 9.39582 | 20918 ft | 399 kts | 83° |
| 2026-05-06 18:19 | 60.33178 | 9.45022 | 20543 ft | 396 kts | 73° |
| 2026-05-06 18:20 | 60.33938 | 9.50333 | 20203 ft | 393 kts | 72° |
| 2026-05-06 18:20 | 60.34704 | 9.55605 | 19806 ft | 391 kts | 73° |
| 2026-05-06 18:20 | 60.35455 | 9.60877 | 19397 ft | 389 kts | 73° |
| 2026-05-06 18:20 | 60.36185 | 9.66128 | 19069 ft | 387 kts | 73° |
| 2026-05-06 18:21 | 60.36896 | 9.71344 | 18776 ft | 384 kts | 74° |
| 2026-05-06 18:21 | 60.37594 | 9.76524 | 18453 ft | 382 kts | 74° |
| 2026-05-06 18:21 | 60.38291 | 9.81717 | 18104 ft | 380 kts | 74° |
| 2026-05-06 18:21 | 60.38976 | 9.86850 | 17814 ft | 376 kts | 74° |
| 2026-05-06 18:22 | 60.39653 | 9.91933 | 17523 ft | 372 kts | 75° |
| 2026-05-06 18:22 | 60.40318 | 9.96954 | 17194 ft | 369 kts | 74° |
| 2026-05-06 18:22 | 60.40982 | 10.01935 | 16877 ft | 364 kts | 75° |
| 2026-05-06 18:22 | 60.41637 | 10.06812 | 16483 ft | 355 kts | 74° |
| 2026-05-06 18:23 | 60.42287 | 10.11620 | 15933 ft | 352 kts | 74° |
| 2026-05-06 18:23 | 60.42934 | 10.16363 | 15445 ft | 347 kts | 74° |
| 2026-05-06 18:23 | 60.43576 | 10.21032 | 15009 ft | 341 kts | 74° |
| 2026-05-06 18:23 | 60.44211 | 10.25604 | 14557 ft | 335 kts | 75° |
| 2026-05-06 18:24 | 60.44834 | 10.30051 | 14121 ft | 330 kts | 75° |
| 2026-05-06 18:24 | 60.45468 | 10.34530 | 13679 ft | 324 kts | 75° |
| 2026-05-06 18:24 | 60.46092 | 10.38889 | 13169 ft | 320 kts | 75° |
| 2026-05-06 18:24 | 60.46709 | 10.43184 | 12650 ft | 316 kts | 75° |
| 2026-05-06 18:25 | 60.47319 | 10.47424 | 12139 ft | 312 kts | 75° |
| 2026-05-06 18:25 | 60.47918 | 10.51570 | 11663 ft | 308 kts | 75° |
| 2026-05-06 18:25 | 60.48527 | 10.55764 | 11161 ft | 304 kts | 74° |
| 2026-05-06 18:25 | 60.49072 | 10.59877 | 10689 ft | 300 kts | 76° |
| 2026-05-06 18:26 | 60.49600 | 10.63876 | 10245 ft | 295 kts | 75° |
| 2026-05-06 18:26 | 60.50075 | 10.67300 | 9876 ft | 294 kts | 75° |
| 2026-05-06 18:26 | 60.50638 | 10.71271 | 9528 ft | 291 kts | 75° |
| 2026-05-06 18:26 | 60.51184 | 10.75189 | 9282 ft | 286 kts | 75° |
| 2026-05-06 18:27 | 60.51714 | 10.79086 | 9044 ft | 292 kts | 75° |
| 2026-05-06 18:27 | 60.52241 | 10.83105 | 9072 ft | 296 kts | 76° |
| 2026-05-06 18:27 | 60.52742 | 10.87156 | 9773 ft | 290 kts | 77° |
| 2026-05-06 18:27 | 60.53229 | 10.91181 | 10238 ft | 300 kts | 76° |
| 2026-05-06 18:28 | 60.53591 | 10.93962 | 10323 ft | 301 kts | 76° |
| 2026-05-06 18:28 | 60.54102 | 10.98078 | 10450 ft | 304 kts | 77° |
| 2026-05-06 18:28 | 60.54250 | 11.02304 | 10337 ft | 298 kts | 99° |
| 2026-05-06 18:28 | 60.53884 | 11.06393 | 10165 ft | 291 kts | 104° |
| 2026-05-06 18:29 | 60.53449 | 11.10388 | 9801 ft | 287 kts | 104° |
| 2026-05-06 18:29 | 60.53004 | 11.14334 | 9223 ft | 286 kts | 104° |
| 2026-05-06 18:29 | 60.52556 | 11.18223 | 8857 ft | 278 kts | 104° |
| 2026-05-06 18:29 | 60.52124 | 11.21943 | 8689 ft | 264 kts | 105° |
| 2026-05-06 18:30 | 60.51703 | 11.25535 | 8313 ft | 260 kts | 105° |
| 2026-05-06 18:30 | 60.51281 | 11.29097 | 7854 ft | 260 kts | 105° |
| 2026-05-06 18:30 | 60.50868 | 11.32540 | 7666 ft | 249 kts | 105° |
| 2026-05-06 18:30 | 60.50458 | 11.35938 | 7285 ft | 247 kts | 105° |
| 2026-05-06 18:31 | 60.50041 | 11.39351 | 6902 ft | 245 kts | 105° |
| 2026-05-06 18:31 | 60.49313 | 11.42406 | 6483 ft | 242 kts | 136° |
| 2026-05-06 18:31 | 60.47865 | 11.43945 | 6072 ft | 236 kts | 175° |
| 2026-05-06 18:31 | 60.46306 | 11.43338 | 5625 ft | 230 kts | 214° |
| 2026-05-06 18:32 | 60.45317 | 11.40915 | 5178 ft | 226 kts | 252° |
| 2026-05-06 18:32 | 60.45090 | 11.37774 | 5079 ft | 230 kts | 265° |
| 2026-05-06 18:32 | 60.44949 | 11.34587 | 5043 ft | 230 kts | 265° |
| 2026-05-06 18:32 | 60.44807 | 11.31364 | 4952 ft | 224 kts | 265° |
| 2026-05-06 18:33 | 60.44658 | 11.28207 | 4566 ft | 224 kts | 261° |
| 2026-05-06 18:33 | 60.43967 | 11.25433 | 4150 ft | 226 kts | 226° |
| 2026-05-06 18:33 | 60.42828 | 11.23234 | 4066 ft | 229 kts | 225° |
| 2026-05-06 18:33 | 60.41699 | 11.21054 | 3994 ft | 225 kts | 225° |
| 2026-05-06 18:34 | 60.40533 | 11.18891 | 4004 ft | 225 kts | 218° |
| 2026-05-06 18:34 | 60.39136 | 11.17542 | 4014 ft | 228 kts | 199° |
| 2026-05-06 18:34 | 60.37608 | 11.16636 | 3992 ft | 226 kts | 197° |
| 2026-05-06 18:34 | 60.36140 | 11.15809 | 3980 ft | 211 kts | 197° |
| 2026-05-06 18:35 | 60.34783 | 11.15063 | 3950 ft | 193 kts | 197° |
| 2026-05-06 18:35 | 60.33488 | 11.14447 | 3834 ft | 197 kts | 191° |
| 2026-05-06 18:35 | 60.32080 | 11.14087 | 3353 ft | 207 kts | 188° |
| 2026-05-06 18:35 | 60.30691 | 11.13821 | 2978 ft | 196 kts | 188° |
| 2026-05-06 18:36 | 60.29364 | 11.13418 | 2566 ft | 188 kts | 191° |
| 2026-05-06 18:36 | 60.28115 | 11.12968 | 2209 ft | 177 kts | 197° |
| 2026-05-06 18:36 | 60.26996 | 11.12355 | 2062 ft | 154 kts | 197° |
| 2026-05-06 18:36 | 60.26032 | 11.11844 | 1995 ft | 142 kts | 197° |
| 2026-05-06 18:37 | 60.25080 | 11.11341 | 1795 ft | 144 kts | 197° |
| 2026-05-06 18:37 | 60.24145 | 11.10742 | 1362 ft | 136 kts | 201° |
| 2026-05-06 18:37 | 60.23283 | 11.10164 | 1057 ft | 125 kts | 199° |
| 2026-05-06 18:37 | 60.22456 | 11.09664 | 880 ft | 130 kts | 197° |
| 2026-05-06 18:38 | 60.21574 | 11.09169 | 741 ft | 126 kts | 199° |
| 2026-05-06 18:38 | 60.20783 | 11.08693 | 677 ft | 108 kts | 196° |
| 2026-05-06 18:38 | 60.20198 | 11.08358 | 675 ft | 33 kts | 195° |
| 2026-05-06 18:38 | 60.20058 | 11.08306 | 672 ft | 20 kts | 182° |
| 2026-05-06 18:39 | 60.19923 | 11.08352 | 672 ft | 20 kts | 141° |
| 2026-05-06 18:39 | 60.19887 | 11.08476 | 673 ft | 9 kts | 100° |
| 2026-05-06 18:39 | 60.19886 | 11.08490 | 673 ft | 0 kts | 101° |
| 2026-05-06 18:40 | 60.19872 | 11.08591 | 673 ft | 11 kts | 105° |
| 2026-05-06 18:40 | 60.19848 | 11.08754 | 675 ft | 15 kts | 107° |
| 2026-05-06 18:40 | 60.19813 | 11.08986 | 677 ft | 19 kts | 112° |
| 2026-05-06 18:40 | 60.19719 | 11.09143 | 677 ft | 18 kts | 112° |
| 2026-05-06 18:41 | 60.19684 | 11.09388 | 676 ft | 17 kts | 104° |
| 2026-05-06 18:41 | 60.19664 | 11.09525 | 674 ft | 9 kts | 118° |
| 2026-05-06 18:41 | 60.19605 | 11.09533 | 679 ft | 9 kts | 196° |
| 2026-05-06 18:41 | 60.19555 | 11.09504 | 681 ft | 0 kts | 196° |